sensor_id;sensor_type;location;lat;lon;timestamp;pressure;altitude;pressure_sealevel;temperature;humidity
48810;BME280;40070;47.322;18.784;2023-03-31T00:00:03;999.51;;;13.51;73.17
48810;BME280;40070;47.322;18.784;2023-03-31T00:02:04;999.46;;;13.66;72.78
48810;BME280;40070;47.322;18.784;2023-03-31T00:04:05;999.50;;;13.56;73.07
48810;BME280;40070;47.322;18.784;2023-03-31T00:06:06;999.46;;;13.67;72.52
48810;BME280;40070;47.322;18.784;2023-03-31T00:08:09;999.44;;;13.59;72.66
48810;BME280;40070;47.322;18.784;2023-03-31T00:10:10;999.47;;;13.65;72.35
48810;BME280;40070;47.322;18.784;2023-03-31T00:12:14;999.51;;;13.77;72.09
48810;BME280;40070;47.322;18.784;2023-03-31T00:14:16;999.47;;;13.57;71.97
48810;BME280;40070;47.322;18.784;2023-03-31T00:16:17;999.40;;;13.58;71.91
48810;BME280;40070;47.322;18.784;2023-03-31T00:18:19;999.41;;;13.58;71.73
48810;BME280;40070;47.322;18.784;2023-03-31T00:20:19;999.40;;;13.64;71.21
48810;BME280;40070;47.322;18.784;2023-03-31T00:22:20;999.38;;;13.39;71.81
48810;BME280;40070;47.322;18.784;2023-03-31T00:24:21;999.37;;;13.48;71.90
48810;BME280;40070;47.322;18.784;2023-03-31T00:26:22;999.27;;;13.55;71.55
48810;BME280;40070;47.322;18.784;2023-03-31T00:28:24;999.29;;;13.53;71.44
48810;BME280;40070;47.322;18.784;2023-03-31T00:30:25;999.25;;;13.53;71.65
48810;BME280;40070;47.322;18.784;2023-03-31T00:32:25;999.28;;;13.35;72.21
48810;BME280;40070;47.322;18.784;2023-03-31T00:34:27;999.30;;;13.50;72.04
48810;BME280;40070;47.322;18.784;2023-03-31T00:36:27;999.27;;;13.34;72.36
48810;BME280;40070;47.322;18.784;2023-03-31T00:38:28;999.26;;;13.09;72.81
48810;BME280;40070;47.322;18.784;2023-03-31T00:40:30;999.19;;;12.98;74.12
48810;BME280;40070;47.322;18.784;2023-03-31T00:42:30;999.17;;;13.19;73.24
48810;BME280;40070;47.322;18.784;2023-03-31T00:44:31;999.19;;;13.35;72.47
48810;BME280;40070;47.322;18.784;2023-03-31T00:46:37;999.17;;;13.21;73.13
48810;BME280;40070;47.322;18.784;2023-03-31T00:48:47;999.20;;;13.35;72.48
48810;BME280;40070;47.322;18.784;2023-03-31T00:50:52;999.19;;;13.40;71.89
48810;BME280;40070;47.322;18.784;2023-03-31T00:53:00;999.16;;;13.30;71.72
48810;BME280;40070;47.322;18.784;2023-03-31T00:55:06;999.19;;;13.18;71.90
48810;BME280;40070;47.322;18.784;2023-03-31T00:57:08;999.18;;;13.20;72.08
48810;BME280;40070;47.322;18.784;2023-03-31T00:59:10;999.22;;;12.88;72.77
48810;BME280;40070;47.322;18.784;2023-03-31T01:01:13;999.24;;;12.81;72.53
48810;BME280;40070;47.322;18.784;2023-03-31T01:03:14;999.23;;;12.80;72.44
48810;BME280;40070;47.322;18.784;2023-03-31T01:05:15;999.17;;;12.87;71.86
48810;BME280;40070;47.322;18.784;2023-03-31T01:07:21;999.13;;;12.83;71.80
48810;BME280;40070;47.322;18.784;2023-03-31T01:09:23;999.14;;;12.69;71.08
48810;BME280;40070;47.322;18.784;2023-03-31T01:11:25;999.15;;;12.59;71.57
48810;BME280;40070;47.322;18.784;2023-03-31T01:13:27;999.22;;;12.58;72.18
48810;BME280;40070;47.322;18.784;2023-03-31T01:15:28;999.20;;;12.28;72.90
48810;BME280;40070;47.322;18.784;2023-03-31T01:17:29;999.16;;;12.53;71.89
48810;BME280;40070;47.322;18.784;2023-03-31T01:22:01;999.20;;;12.45;72.15
48810;BME280;40070;47.322;18.784;2023-03-31T01:24:13;999.14;;;12.40;72.38
48810;BME280;40070;47.322;18.784;2023-03-31T01:26:35;999.14;;;12.22;72.42
48810;BME280;40070;47.322;18.784;2023-03-31T01:29:06;999.15;;;12.15;73.29
48810;BME280;40070;47.322;18.784;2023-03-31T01:42:51;999.18;;;12.50;71.99
48810;BME280;40070;47.322;18.784;2023-03-31T01:44:59;999.16;;;12.50;71.90
48810;BME280;40070;47.322;18.784;2023-03-31T01:47:23;999.20;;;12.33;72.05
48810;BME280;40070;47.322;18.784;2023-03-31T01:51:44;999.24;;;12.37;71.86
48810;BME280;40070;47.322;18.784;2023-03-31T01:53:49;999.25;;;12.43;71.90
48810;BME280;40070;47.322;18.784;2023-03-31T01:58:10;999.15;;;12.46;71.25
48810;BME280;40070;47.322;18.784;2023-03-31T02:00:13;999.21;;;12.46;70.89
48810;BME280;40070;47.322;18.784;2023-03-31T02:02:19;999.18;;;12.40;70.22
48810;BME280;40070;47.322;18.784;2023-03-31T02:05:04;999.19;;;12.47;70.31
48810;BME280;40070;47.322;18.784;2023-03-31T02:06:39;999.19;;;12.54;69.16
48810;BME280;40070;47.322;18.784;2023-03-31T02:08:44;999.15;;;12.43;69.13
48810;BME280;40070;47.322;18.784;2023-03-31T02:10:47;999.11;;;12.34;68.78
48810;BME280;40070;47.322;18.784;2023-03-31T02:12:49;999.10;;;12.35;69.03
48810;BME280;40070;47.322;18.784;2023-03-31T02:14:51;999.07;;;12.26;69.18
48810;BME280;40070;47.322;18.784;2023-03-31T02:16:55;998.99;;;11.97;69.88
48810;BME280;40070;47.322;18.784;2023-03-31T02:18:58;998.96;;;12.09;69.38
48810;BME280;40070;47.322;18.784;2023-03-31T02:21:01;998.99;;;12.09;69.61
48810;BME280;40070;47.322;18.784;2023-03-31T02:23:02;999.01;;;12.08;69.12
48810;BME280;40070;47.322;18.784;2023-03-31T02:25:05;999.05;;;12.12;69.06
48810;BME280;40070;47.322;18.784;2023-03-31T02:27:18;999.03;;;11.96;69.12
48810;BME280;40070;47.322;18.784;2023-03-31T02:29:20;999.01;;;11.89;69.30
48810;BME280;40070;47.322;18.784;2023-03-31T02:31:28;998.98;;;11.96;69.10
48810;BME280;40070;47.322;18.784;2023-03-31T02:33:33;998.93;;;11.93;68.97
48810;BME280;40070;47.322;18.784;2023-03-31T02:35:34;998.91;;;12.00;68.67
48810;BME280;40070;47.322;18.784;2023-03-31T02:37:35;998.91;;;11.97;68.58
48810;BME280;40070;47.322;18.784;2023-03-31T02:39:37;998.87;;;12.00;68.33
48810;BME280;40070;47.322;18.784;2023-03-31T02:41:40;998.87;;;11.95;67.80
48810;BME280;40070;47.322;18.784;2023-03-31T02:43:41;998.89;;;11.91;67.75
48810;BME280;40070;47.322;18.784;2023-03-31T02:45:45;998.88;;;11.83;67.79
48810;BME280;40070;47.322;18.784;2023-03-31T02:47:46;998.85;;;11.75;68.17
48810;BME280;40070;47.322;18.784;2023-03-31T02:49:48;998.94;;;11.80;68.05
48810;BME280;40070;47.322;18.784;2023-03-31T02:52:00;998.89;;;11.79;67.97
48810;BME280;40070;47.322;18.784;2023-03-31T02:54:14;999.00;;;11.82;67.93
48810;BME280;40070;47.322;18.784;2023-03-31T02:58:44;998.90;;;11.92;67.50
48810;BME280;40070;47.322;18.784;2023-03-31T03:01:02;998.84;;;11.88;67.35
48810;BME280;40070;47.322;18.784;2023-03-31T03:05:26;998.87;;;11.79;67.55
48810;BME280;40070;47.322;18.784;2023-03-31T03:07:45;998.88;;;11.83;67.70
48810;BME280;40070;47.322;18.784;2023-03-31T03:12:09;998.96;;;11.75;67.38
48810;BME280;40070;47.322;18.784;2023-03-31T03:16:38;998.89;;;11.40;70.86
48810;BME280;40070;47.322;18.784;2023-03-31T03:18:40;998.89;;;11.51;70.94
48810;BME280;40070;47.322;18.784;2023-03-31T03:20:41;998.89;;;11.58;70.46
48810;BME280;40070;47.322;18.784;2023-03-31T03:22:42;998.85;;;11.72;70.41
48810;BME280;40070;47.322;18.784;2023-03-31T03:24:43;998.88;;;11.58;71.24
48810;BME280;40070;47.322;18.784;2023-03-31T03:26:44;998.85;;;11.41;72.33
48810;BME280;40070;47.322;18.784;2023-03-31T03:28:46;998.78;;;11.20;73.18
48810;BME280;40070;47.322;18.784;2023-03-31T03:30:47;998.77;;;11.30;73.02
48810;BME280;40070;47.322;18.784;2023-03-31T03:32:48;998.75;;;11.21;73.14
48810;BME280;40070;47.322;18.784;2023-03-31T03:34:50;998.71;;;11.47;72.50
48810;BME280;40070;47.322;18.784;2023-03-31T03:36:51;998.67;;;11.52;71.99
48810;BME280;40070;47.322;18.784;2023-03-31T03:38:51;998.69;;;11.58;71.38
48810;BME280;40070;47.322;18.784;2023-03-31T03:40:52;998.73;;;11.63;70.86
48810;BME280;40070;47.322;18.784;2023-03-31T03:42:53;998.74;;;11.48;71.03
48810;BME280;40070;47.322;18.784;2023-03-31T03:44:54;998.68;;;11.35;71.51
48810;BME280;40070;47.322;18.784;2023-03-31T03:46:55;998.70;;;11.26;71.92
48810;BME280;40070;47.322;18.784;2023-03-31T03:48:56;998.70;;;11.39;72.19
48810;BME280;40070;47.322;18.784;2023-03-31T03:51:00;998.65;;;11.54;71.21
48810;BME280;40070;47.322;18.784;2023-03-31T03:53:01;998.67;;;11.66;70.84
48810;BME280;40070;47.322;18.784;2023-03-31T03:55:02;998.64;;;11.74;70.45
48810;BME280;40070;47.322;18.784;2023-03-31T03:57:03;998.59;;;11.75;70.32
48810;BME280;40070;47.322;18.784;2023-03-31T03:59:04;998.57;;;11.69;70.14
48810;BME280;40070;47.322;18.784;2023-03-31T04:01:05;998.56;;;11.78;70.20
48810;BME280;40070;47.322;18.784;2023-03-31T04:03:05;998.51;;;11.67;70.46
48810;BME280;40070;47.322;18.784;2023-03-31T04:05:07;998.52;;;11.69;70.50
48810;BME280;40070;47.322;18.784;2023-03-31T04:07:08;998.54;;;11.68;70.58
48810;BME280;40070;47.322;18.784;2023-03-31T04:09:09;998.53;;;11.67;70.66
48810;BME280;40070;47.322;18.784;2023-03-31T04:11:16;998.52;;;11.67;70.22
48810;BME280;40070;47.322;18.784;2023-03-31T04:13:17;998.49;;;11.58;70.38
48810;BME280;40070;47.322;18.784;2023-03-31T04:15:19;998.51;;;11.70;69.75
48810;BME280;40070;47.322;18.784;2023-03-31T04:17:19;998.54;;;11.57;69.92
48810;BME280;40070;47.322;18.784;2023-03-31T04:19:21;998.50;;;11.57;69.79
48810;BME280;40070;47.322;18.784;2023-03-31T04:21:22;998.48;;;11.55;69.94
48810;BME280;40070;47.322;18.784;2023-03-31T04:23:23;998.50;;;11.51;70.21
48810;BME280;40070;47.322;18.784;2023-03-31T04:25:24;998.46;;;11.46;70.40
48810;BME280;40070;47.322;18.784;2023-03-31T04:27:25;998.48;;;11.47;70.62
48810;BME280;40070;47.322;18.784;2023-03-31T04:29:27;998.50;;;11.57;70.13
48810;BME280;40070;47.322;18.784;2023-03-31T04:31:27;998.48;;;11.58;69.67
48810;BME280;40070;47.322;18.784;2023-03-31T04:33:28;998.44;;;11.57;69.52
48810;BME280;40070;47.322;18.784;2023-03-31T04:35:29;998.42;;;11.57;69.58
48810;BME280;40070;47.322;18.784;2023-03-31T04:37:30;998.39;;;11.47;69.82
48810;BME280;40070;47.322;18.784;2023-03-31T04:39:31;998.39;;;11.53;69.67
48810;BME280;40070;47.322;18.784;2023-03-31T04:41:32;998.38;;;11.57;69.53
48810;BME280;40070;47.322;18.784;2023-03-31T04:43:33;998.40;;;11.55;69.72
48810;BME280;40070;47.322;18.784;2023-03-31T04:45:34;998.40;;;11.62;69.52
48810;BME280;40070;47.322;18.784;2023-03-31T04:47:35;998.36;;;11.70;69.27
48810;BME280;40070;47.322;18.784;2023-03-31T04:49:36;998.29;;;11.65;69.13
48810;BME280;40070;47.322;18.784;2023-03-31T04:51:37;998.28;;;11.63;69.30
48810;BME280;40070;47.322;18.784;2023-03-31T04:53:38;998.33;;;11.58;69.43
48810;BME280;40070;47.322;18.784;2023-03-31T04:55:39;998.34;;;11.58;68.68
48810;BME280;40070;47.322;18.784;2023-03-31T04:57:39;998.40;;;11.39;68.82
48810;BME280;40070;47.322;18.784;2023-03-31T04:59:40;998.38;;;11.37;68.95
48810;BME280;40070;47.322;18.784;2023-03-31T05:01:41;998.38;;;11.18;69.78
48810;BME280;40070;47.322;18.784;2023-03-31T05:03:43;998.33;;;11.32;69.58
48810;BME280;40070;47.322;18.784;2023-03-31T05:05:43;998.30;;;11.18;70.22
48810;BME280;40070;47.322;18.784;2023-03-31T05:07:44;998.22;;;11.30;70.18
48810;BME280;40070;47.322;18.784;2023-03-31T05:09:46;998.20;;;11.26;70.72
48810;BME280;40070;47.322;18.784;2023-03-31T05:11:47;998.21;;;11.19;71.17
48810;BME280;40070;47.322;18.784;2023-03-31T05:13:48;998.18;;;11.30;70.99
48810;BME280;40070;47.322;18.784;2023-03-31T05:15:49;998.15;;;11.47;70.64
48810;BME280;40070;47.322;18.784;2023-03-31T05:17:50;998.16;;;11.33;71.27
48810;BME280;40070;47.322;18.784;2023-03-31T05:19:51;998.16;;;11.52;70.80
48810;BME280;40070;47.322;18.784;2023-03-31T05:21:52;998.18;;;11.60;70.65
48810;BME280;40070;47.322;18.784;2023-03-31T05:23:53;998.22;;;11.63;70.84
48810;BME280;40070;47.322;18.784;2023-03-31T05:25:55;998.18;;;11.61;71.21
48810;BME280;40070;47.322;18.784;2023-03-31T05:27:56;998.21;;;11.69;71.45
48810;BME280;40070;47.322;18.784;2023-03-31T05:29:57;998.18;;;11.49;72.26
48810;BME280;40070;47.322;18.784;2023-03-31T05:31:57;998.23;;;11.46;71.93
48810;BME280;40070;47.322;18.784;2023-03-31T05:33:58;998.20;;;11.91;71.28
48810;BME280;40070;47.322;18.784;2023-03-31T05:35:59;998.16;;;11.96;70.51
48810;BME280;40070;47.322;18.784;2023-03-31T05:38:00;998.18;;;12.16;70.28
48810;BME280;40070;47.322;18.784;2023-03-31T05:40:01;998.22;;;12.12;70.43
48810;BME280;40070;47.322;18.784;2023-03-31T05:42:03;998.23;;;12.25;70.32
48810;BME280;40070;47.322;18.784;2023-03-31T05:44:04;998.21;;;12.33;70.13
48810;BME280;40070;47.322;18.784;2023-03-31T05:46:05;998.24;;;12.42;70.10
48810;BME280;40070;47.322;18.784;2023-03-31T05:48:05;998.15;;;12.44;69.97
48810;BME280;40070;47.322;18.784;2023-03-31T05:50:07;998.12;;;12.55;69.95
48810;BME280;40070;47.322;18.784;2023-03-31T05:52:08;998.10;;;12.69;69.96
48810;BME280;40070;47.322;18.784;2023-03-31T05:54:09;998.08;;;12.73;70.20
48810;BME280;40070;47.322;18.784;2023-03-31T05:56:10;998.03;;;12.65;70.67
48810;BME280;40070;47.322;18.784;2023-03-31T05:58:11;998.07;;;12.61;71.33
48810;BME280;40070;47.322;18.784;2023-03-31T06:00:12;998.01;;;12.61;71.28
48810;BME280;40070;47.322;18.784;2023-03-31T06:02:13;998.01;;;12.63;70.97
48810;BME280;40070;47.322;18.784;2023-03-31T06:04:14;997.99;;;12.73;70.67
48810;BME280;40070;47.322;18.784;2023-03-31T06:06:15;997.99;;;12.61;70.22
48810;BME280;40070;47.322;18.784;2023-03-31T06:08:16;997.99;;;12.54;70.80
48810;BME280;40070;47.322;18.784;2023-03-31T06:10:17;998.00;;;12.54;71.78
48810;BME280;40070;47.322;18.784;2023-03-31T06:12:18;998.01;;;12.81;70.71
48810;BME280;40070;47.322;18.784;2023-03-31T06:14:19;998.10;;;12.51;71.46
48810;BME280;40070;47.322;18.784;2023-03-31T06:16:20;998.09;;;12.44;71.85
48810;BME280;40070;47.322;18.784;2023-03-31T06:18:21;998.17;;;12.54;72.55
48810;BME280;40070;47.322;18.784;2023-03-31T06:20:22;998.11;;;12.31;72.70
48810;BME280;40070;47.322;18.784;2023-03-31T06:22:23;998.18;;;12.25;72.35
48810;BME280;40070;47.322;18.784;2023-03-31T06:24:24;998.14;;;12.19;73.02
48810;BME280;40070;47.322;18.784;2023-03-31T06:26:25;998.17;;;12.43;72.27
48810;BME280;40070;47.322;18.784;2023-03-31T06:28:26;998.11;;;12.38;72.35
48810;BME280;40070;47.322;18.784;2023-03-31T06:30:27;998.13;;;12.31;72.31
48810;BME280;40070;47.322;18.784;2023-03-31T06:32:28;998.14;;;12.45;71.93
48810;BME280;40070;47.322;18.784;2023-03-31T06:34:29;998.11;;;12.08;73.41
48810;BME280;40070;47.322;18.784;2023-03-31T06:36:30;998.11;;;12.25;73.87
48810;BME280;40070;47.322;18.784;2023-03-31T06:38:34;998.10;;;12.64;72.36
48810;BME280;40070;47.322;18.784;2023-03-31T06:40:36;998.09;;;12.47;72.28
48810;BME280;40070;47.322;18.784;2023-03-31T06:42:37;998.04;;;12.53;72.38
48810;BME280;40070;47.322;18.784;2023-03-31T06:44:37;998.09;;;12.64;72.65
48810;BME280;40070;47.322;18.784;2023-03-31T06:46:38;998.07;;;12.72;72.15
48810;BME280;40070;47.322;18.784;2023-03-31T06:48:39;998.10;;;12.97;72.37
48810;BME280;40070;47.322;18.784;2023-03-31T06:50:41;998.13;;;13.02;71.44
48810;BME280;40070;47.322;18.784;2023-03-31T06:52:42;998.15;;;13.18;71.62
48810;BME280;40070;47.322;18.784;2023-03-31T06:54:43;998.15;;;13.05;71.49
48810;BME280;40070;47.322;18.784;2023-03-31T06:56:43;998.15;;;13.14;71.37
48810;BME280;40070;47.322;18.784;2023-03-31T06:58:44;998.09;;;13.46;70.47
48810;BME280;40070;47.322;18.784;2023-03-31T07:00:45;998.12;;;13.70;70.21
48810;BME280;40070;47.322;18.784;2023-03-31T07:02:46;998.12;;;13.75;69.73
48810;BME280;40070;47.322;18.784;2023-03-31T07:04:47;998.07;;;13.49;70.25
48810;BME280;40070;47.322;18.784;2023-03-31T07:06:48;998.05;;;13.64;69.87
48810;BME280;40070;47.322;18.784;2023-03-31T07:08:50;998.02;;;13.56;70.39
48810;BME280;40070;47.322;18.784;2023-03-31T07:10:57;998.02;;;13.78;69.56
48810;BME280;40070;47.322;18.784;2023-03-31T07:12:58;997.97;;;13.82;68.59
48810;BME280;40070;47.322;18.784;2023-03-31T07:14:59;997.97;;;13.86;68.59
48810;BME280;40070;47.322;18.784;2023-03-31T07:17:00;997.91;;;14.16;68.17
48810;BME280;40070;47.322;18.784;2023-03-31T07:19:01;997.94;;;14.04;68.21
48810;BME280;40070;47.322;18.784;2023-03-31T07:21:03;997.88;;;14.13;68.91
48810;BME280;40070;47.322;18.784;2023-03-31T07:23:04;997.81;;;14.17;68.91
48810;BME280;40070;47.322;18.784;2023-03-31T07:25:05;997.83;;;14.20;69.08
48810;BME280;40070;47.322;18.784;2023-03-31T07:27:06;997.78;;;14.17;68.08
48810;BME280;40070;47.322;18.784;2023-03-31T07:29:07;997.79;;;14.29;67.54
48810;BME280;40070;47.322;18.784;2023-03-31T07:31:12;997.74;;;14.37;67.33
48810;BME280;40070;47.322;18.784;2023-03-31T07:33:13;997.69;;;14.02;67.32
48810;BME280;40070;47.322;18.784;2023-03-31T07:35:15;997.70;;;14.31;67.33
48810;BME280;40070;47.322;18.784;2023-03-31T07:37:16;997.71;;;14.12;67.46
48810;BME280;40070;47.322;18.784;2023-03-31T07:39:17;997.73;;;14.25;67.57
48810;BME280;40070;47.322;18.784;2023-03-31T07:41:18;997.69;;;14.41;67.92
48810;BME280;40070;47.322;18.784;2023-03-31T07:43:20;997.67;;;14.55;67.41
48810;BME280;40070;47.322;18.784;2023-03-31T07:45:21;997.67;;;14.68;66.79
48810;BME280;40070;47.322;18.784;2023-03-31T07:47:22;997.63;;;14.70;66.59
48810;BME280;40070;47.322;18.784;2023-03-31T07:49:24;997.62;;;14.69;66.68
48810;BME280;40070;47.322;18.784;2023-03-31T07:51:25;997.61;;;14.53;67.72
48810;BME280;40070;47.322;18.784;2023-03-31T07:53:26;997.61;;;14.53;68.54
48810;BME280;40070;47.322;18.784;2023-03-31T07:55:27;997.59;;;14.93;68.27
48810;BME280;40070;47.322;18.784;2023-03-31T07:57:28;997.57;;;15.12;67.96
48810;BME280;40070;47.322;18.784;2023-03-31T07:59:29;997.60;;;14.86;67.04
48810;BME280;40070;47.322;18.784;2023-03-31T08:01:30;997.60;;;14.82;66.88
48810;BME280;40070;47.322;18.784;2023-03-31T08:03:31;997.57;;;15.15;65.75
48810;BME280;40070;47.322;18.784;2023-03-31T08:05:32;997.47;;;15.33;65.33
48810;BME280;40070;47.322;18.784;2023-03-31T08:07:34;997.42;;;15.31;64.52
48810;BME280;40070;47.322;18.784;2023-03-31T08:09:35;997.45;;;15.48;64.18
48810;BME280;40070;47.322;18.784;2023-03-31T08:11:36;997.41;;;15.44;64.51
48810;BME280;40070;47.322;18.784;2023-03-31T08:13:37;997.40;;;15.47;63.90
48810;BME280;40070;47.322;18.784;2023-03-31T08:15:38;997.37;;;15.53;63.61
48810;BME280;40070;47.322;18.784;2023-03-31T08:17:49;997.40;;;15.53;63.33
48810;BME280;40070;47.322;18.784;2023-03-31T08:19:50;997.31;;;15.50;63.77
48810;BME280;40070;47.322;18.784;2023-03-31T08:21:51;997.27;;;15.74;63.03
48810;BME280;40070;47.322;18.784;2023-03-31T08:23:53;997.16;;;16.20;62.81
48810;BME280;40070;47.322;18.784;2023-03-31T08:25:54;997.11;;;16.32;62.79
48810;BME280;40070;47.322;18.784;2023-03-31T08:28:06;997.02;;;16.24;60.78
48810;BME280;40070;47.322;18.784;2023-03-31T08:30:08;997.03;;;16.11;59.86
48810;BME280;40070;47.322;18.784;2023-03-31T08:32:10;997.01;;;16.41;59.01
48810;BME280;40070;47.322;18.784;2023-03-31T08:34:12;997.03;;;16.18;59.76
48810;BME280;40070;47.322;18.784;2023-03-31T08:36:14;996.97;;;16.28;59.66
48810;BME280;40070;47.322;18.784;2023-03-31T08:38:16;996.97;;;16.51;59.78
48810;BME280;40070;47.322;18.784;2023-03-31T08:40:22;996.91;;;16.49;59.43
48810;BME280;40070;47.322;18.784;2023-03-31T08:44:55;996.84;;;16.77;59.18
48810;BME280;40070;47.322;18.784;2023-03-31T08:46:59;996.83;;;16.82;57.61
48810;BME280;40070;47.322;18.784;2023-03-31T08:49:01;996.78;;;16.87;58.27
48810;BME280;40070;47.322;18.784;2023-03-31T08:51:11;996.78;;;17.08;57.74
48810;BME280;40070;47.322;18.784;2023-03-31T08:53:19;996.65;;;17.27;57.25
48810;BME280;40070;47.322;18.784;2023-03-31T08:55:26;996.67;;;17.14;58.06
48810;BME280;40070;47.322;18.784;2023-03-31T08:57:35;996.60;;;17.28;57.26
48810;BME280;40070;47.322;18.784;2023-03-31T08:59:41;996.62;;;17.32;57.04
48810;BME280;40070;47.322;18.784;2023-03-31T09:01:59;996.57;;;17.44;57.02
48810;BME280;40070;47.322;18.784;2023-03-31T09:04:06;996.63;;;17.29;56.84
48810;BME280;40070;47.322;18.784;2023-03-31T09:06:13;996.55;;;17.48;56.54
48810;BME280;40070;47.322;18.784;2023-03-31T09:08:30;996.45;;;17.25;57.07
48810;BME280;40070;47.322;18.784;2023-03-31T09:13:01;996.36;;;17.32;56.36
48810;BME280;40070;47.322;18.784;2023-03-31T09:15:07;996.26;;;17.58;55.95
48810;BME280;40070;47.322;18.784;2023-03-31T09:19:36;996.40;;;17.90;56.32
48810;BME280;40070;47.322;18.784;2023-03-31T09:21:39;996.38;;;17.91;55.30
48810;BME280;40070;47.322;18.784;2023-03-31T09:23:49;996.29;;;18.00;56.47
48810;BME280;40070;47.322;18.784;2023-03-31T09:25:51;996.26;;;18.36;56.59
48810;BME280;40070;47.322;18.784;2023-03-31T09:27:54;996.20;;;18.46;55.14
48810;BME280;40070;47.322;18.784;2023-03-31T09:29:58;996.23;;;18.30;54.24
48810;BME280;40070;47.322;18.784;2023-03-31T09:32:08;996.13;;;18.55;54.45
48810;BME280;40070;47.322;18.784;2023-03-31T09:34:15;996.03;;;18.95;52.49
48810;BME280;40070;47.322;18.784;2023-03-31T09:36:17;996.04;;;19.10;52.39
48810;BME280;40070;47.322;18.784;2023-03-31T09:38:18;995.95;;;18.92;51.88
48810;BME280;40070;47.322;18.784;2023-03-31T09:40:20;995.94;;;18.95;53.04
48810;BME280;40070;47.322;18.784;2023-03-31T09:42:22;995.90;;;18.86;52.85
48810;BME280;40070;47.322;18.784;2023-03-31T09:44:27;995.81;;;18.72;52.65
48810;BME280;40070;47.322;18.784;2023-03-31T09:46:33;995.78;;;18.52;51.66
48810;BME280;40070;47.322;18.784;2023-03-31T09:48:34;995.80;;;18.23;52.81
48810;BME280;40070;47.322;18.784;2023-03-31T09:50:39;995.78;;;18.24;53.05
48810;BME280;40070;47.322;18.784;2023-03-31T09:52:49;995.75;;;18.27;54.06
48810;BME280;40070;47.322;18.784;2023-03-31T09:54:54;995.74;;;18.54;52.63
48810;BME280;40070;47.322;18.784;2023-03-31T09:56:55;995.63;;;19.04;52.73
48810;BME280;40070;47.322;18.784;2023-03-31T09:58:59;995.60;;;19.17;51.76
48810;BME280;40070;47.322;18.784;2023-03-31T10:01:02;995.58;;;19.03;50.97
48810;BME280;40070;47.322;18.784;2023-03-31T10:03:03;995.64;;;19.05;51.78
48810;BME280;40070;47.322;18.784;2023-03-31T10:05:04;995.52;;;19.54;51.24
48810;BME280;40070;47.322;18.784;2023-03-31T10:07:06;995.59;;;19.42;51.19
48810;BME280;40070;47.322;18.784;2023-03-31T10:09:08;995.50;;;19.80;50.62
48810;BME280;40070;47.322;18.784;2023-03-31T10:11:10;995.44;;;19.77;50.09
48810;BME280;40070;47.322;18.784;2023-03-31T10:13:13;995.42;;;19.78;48.64
48810;BME280;40070;47.322;18.784;2023-03-31T10:15:20;995.31;;;19.87;47.80
48810;BME280;40070;47.322;18.784;2023-03-31T10:17:22;995.29;;;19.69;47.84
48810;BME280;40070;47.322;18.784;2023-03-31T10:19:25;995.26;;;20.13;46.79
48810;BME280;40070;47.322;18.784;2023-03-31T10:21:27;995.21;;;20.01;47.10
48810;BME280;40070;47.322;18.784;2023-03-31T10:23:34;995.26;;;19.68;47.02
48810;BME280;40070;47.322;18.784;2023-03-31T10:25:35;995.24;;;19.38;46.24
48810;BME280;40070;47.322;18.784;2023-03-31T10:27:37;995.14;;;18.88;48.70
48810;BME280;40070;47.322;18.784;2023-03-31T10:29:39;995.14;;;19.07;48.77
48810;BME280;40070;47.322;18.784;2023-03-31T10:31:41;995.05;;;18.88;49.45
48810;BME280;40070;47.322;18.784;2023-03-31T10:33:43;995.08;;;18.92;49.19
48810;BME280;40070;47.322;18.784;2023-03-31T10:35:48;995.14;;;18.69;48.29
48810;BME280;40070;47.322;18.784;2023-03-31T10:37:50;995.09;;;19.33;48.40
48810;BME280;40070;47.322;18.784;2023-03-31T10:39:57;995.06;;;19.85;48.10
48810;BME280;40070;47.322;18.784;2023-03-31T10:41:58;995.07;;;20.21;47.31
48810;BME280;40070;47.322;18.784;2023-03-31T10:44:01;995.01;;;20.14;46.61
48810;BME280;40070;47.322;18.784;2023-03-31T10:46:03;994.96;;;20.04;47.22
48810;BME280;40070;47.322;18.784;2023-03-31T10:48:04;994.95;;;20.07;47.20
48810;BME280;40070;47.322;18.784;2023-03-31T10:50:13;994.94;;;20.13;47.20
48810;BME280;40070;47.322;18.784;2023-03-31T10:52:24;994.88;;;20.49;47.56
48810;BME280;40070;47.322;18.784;2023-03-31T10:54:25;994.88;;;20.53;47.19
48810;BME280;40070;47.322;18.784;2023-03-31T10:56:40;994.81;;;20.88;48.71
48810;BME280;40070;47.322;18.784;2023-03-31T11:03:36;994.68;;;21.78;46.75
48810;BME280;40070;47.322;18.784;2023-03-31T11:05:43;994.70;;;21.04;45.39
48810;BME280;40070;47.322;18.784;2023-03-31T11:14:39;994.40;;;20.88;45.80
48810;BME280;40070;47.322;18.784;2023-03-31T11:16:53;994.40;;;20.44;47.67
48810;BME280;40070;47.322;18.784;2023-03-31T11:28:31;994.06;;;20.76;48.62
48810;BME280;40070;47.322;18.784;2023-03-31T11:30:39;994.00;;;21.35;48.39
48810;BME280;40070;47.322;18.784;2023-03-31T11:32:35;993.93;;;21.43;45.96
48810;BME280;40070;47.322;18.784;2023-03-31T11:34:46;993.96;;;20.96;46.67
48810;BME280;40070;47.322;18.784;2023-03-31T11:41:27;993.77;;;20.91;47.79
48810;BME280;40070;47.322;18.784;2023-03-31T11:43:33;993.68;;;21.24;47.74
48810;BME280;40070;47.322;18.784;2023-03-31T11:46:19;993.70;;;21.30;47.69
48810;BME280;40070;47.322;18.784;2023-03-31T11:47:52;993.56;;;21.21;46.09
48810;BME280;40070;47.322;18.784;2023-03-31T11:49:56;993.44;;;21.44;46.58
48810;BME280;40070;47.322;18.784;2023-03-31T11:52:09;993.48;;;21.45;45.76
48810;BME280;40070;47.322;18.784;2023-03-31T11:54:18;993.44;;;21.37;45.43
48810;BME280;40070;47.322;18.784;2023-03-31T11:56:20;993.44;;;21.29;46.30
48810;BME280;40070;47.322;18.784;2023-03-31T11:58:35;993.45;;;21.29;45.83
48810;BME280;40070;47.322;18.784;2023-03-31T12:00:38;993.43;;;21.42;46.05